createdAt,value
2023-01-29T00:02:05.541Z,0.75
2023-01-29T00:04:34.225Z,0.71
2023-01-29T00:07:03.912Z,0.73
2023-01-29T00:09:32.377Z,0.71
2023-01-29T00:12:00.443Z,0.71
2023-01-29T00:14:28.686Z,0.69
2023-01-29T00:16:57.169Z,0.71
2023-01-29T00:19:25.329Z,0.73
2023-01-29T00:21:56.241Z,0.73
2023-01-29T00:24:25.773Z,0.74
2023-01-29T00:26:53.999Z,0.72
2023-01-29T00:29:22.075Z,0.76
2023-01-29T00:31:50.518Z,0.78
2023-01-29T00:34:19.061Z,0.78
2023-01-29T00:36:47.101Z,0.74
2023-01-29T00:39:15.092Z,0.72
2023-01-29T00:42:02.159Z,0.73
2023-01-29T00:44:47.445Z,0.72
2023-01-29T00:47:33.540Z,0.72
2023-01-29T00:50:02.456Z,0.71
2023-01-29T00:52:30.816Z,0.67
2023-01-29T00:55:01.204Z,0.67
2023-01-29T00:57:32.462Z,0.67
2023-01-29T01:00:00.613Z,0.66
2023-01-29T01:02:46.766Z,0.67
2023-01-29T01:05:19.007Z,0.69
2023-01-29T01:07:48.738Z,0.71
2023-01-29T01:10:24.412Z,0.71
2023-01-29T01:12:56.829Z,0.70
2023-01-29T01:15:26.929Z,0.67
2023-01-29T01:17:55.795Z,0.69
2023-01-29T01:20:24.306Z,0.69
2023-01-29T01:22:52.827Z,0.70
2023-01-29T01:25:21.372Z,0.70
2023-01-29T01:27:53.436Z,0.68
2023-01-29T01:30:23.609Z,0.71
2023-01-29T01:32:52.006Z,0.71
2023-01-29T01:35:20.229Z,0.67
2023-01-29T01:37:48.382Z,0.68
2023-01-29T01:40:20.266Z,0.60
2023-01-29T01:42:50.496Z,0.63
2023-01-29T01:45:27.571Z,0.59
2023-01-29T01:48:00.754Z,0.57
2023-01-29T01:50:34.265Z,0.51
2023-01-29T01:53:06.958Z,0.50
2023-01-29T01:55:38.403Z,0.46
2023-01-29T01:58:11.485Z,0.43
2023-01-29T02:00:41.607Z,0.45
2023-01-29T02:03:30.499Z,0.45
2023-01-29T02:06:18.576Z,0.42
2023-01-29T02:09:11.488Z,0.44
2023-01-29T02:11:39.530Z,0.45
2023-01-29T02:14:08.236Z,0.44
2023-01-29T02:16:38.295Z,0.46
2023-01-29T02:19:15.777Z,0.43
2023-01-29T02:22:17.158Z,0.44
2023-01-29T02:25:21.573Z,0.50
2023-01-29T02:28:17.158Z,0.40
2023-01-29T02:30:54.078Z,0.36
2023-01-29T02:33:33.123Z,0.38
2023-01-29T02:36:14.021Z,0.42
2023-01-29T02:38:49.074Z,0.40
2023-01-29T02:41:24.823Z,0.35
2023-01-29T02:43:59.173Z,0.30
2023-01-29T02:46:36.315Z,0.29
2023-01-29T02:49:11.700Z,0.31
2023-01-29T02:51:45.955Z,0.27
2023-01-29T02:54:21.499Z,0.22
2023-01-29T02:56:55.146Z,0.14
2023-01-29T02:59:30.785Z,0.16
2023-01-29T03:02:04.441Z,0.19
2023-01-29T03:04:38.616Z,0.21
2023-01-29T03:07:22.691Z,0.24
2023-01-29T03:09:54.375Z,0.22
2023-01-29T03:12:34.054Z,0.23
2023-01-29T03:15:16.701Z,0.26
2023-01-29T03:17:50.773Z,0.26
2023-01-29T03:20:25.441Z,0.24
2023-01-29T03:22:57.920Z,0.25
2023-01-29T03:25:44.850Z,0.22
2023-01-29T03:28:33.117Z,0.23
2023-01-29T03:31:22.946Z,0.24
2023-01-29T03:33:55.847Z,0.29
2023-01-29T03:36:39.889Z,0.27
2023-01-29T03:39:09.825Z,0.27
2023-01-29T03:41:41.499Z,0.17
2023-01-29T03:44:15.841Z,0.06
2023-01-29T03:46:54.759Z,0.10
2023-01-29T03:49:33.494Z,0.18
2023-01-29T03:52:05.881Z,0.09
2023-01-29T03:54:45.589Z,0.09
2023-01-29T03:57:20.928Z,0.12
2023-01-29T03:59:55.277Z,0.19
2023-01-29T04:02:30.055Z,0.24
2023-01-29T04:05:03.290Z,0.24
2023-01-29T04:07:33.581Z,0.26
2023-01-29T04:10:06.744Z,0.25
2023-01-29T04:12:39.832Z,0.27
2023-01-29T04:15:12.307Z,0.28
2023-01-29T04:17:44.745Z,0.28
2023-01-29T04:20:13.806Z,0.27
2023-01-29T04:22:46.117Z,0.27
2023-01-29T04:25:18.654Z,0.32
2023-01-29T04:27:54.470Z,0.31
2023-01-29T04:30:31.506Z,0.26
2023-01-29T04:33:09.231Z,0.30
2023-01-29T04:35:53.376Z,0.32
2023-01-29T04:38:36.019Z,0.32
2023-01-29T04:41:12.623Z,0.36
2023-01-29T04:43:48.803Z,0.35
2023-01-29T04:46:21.065Z,0.37
2023-01-29T04:49:06.187Z,0.43
2023-01-29T04:51:44.696Z,0.43
2023-01-29T04:54:21.509Z,0.43
2023-01-29T04:56:56.579Z,0.42
2023-01-29T04:59:29.054Z,0.46
2023-01-29T05:01:57.138Z,0.46
2023-01-29T05:04:28.803Z,0.44
2023-01-29T05:06:57.294Z,0.47
2023-01-29T05:09:27.098Z,0.39
2023-01-29T05:11:56.888Z,0.37
2023-01-29T05:14:30.593Z,0.41
2023-01-29T05:17:03.506Z,0.42
2023-01-29T05:19:33.010Z,0.42
2023-01-29T05:22:01.589Z,0.40
2023-01-29T05:24:29.728Z,0.45
2023-01-29T05:27:15.164Z,0.44
2023-01-29T05:29:47.211Z,0.42
2023-01-29T05:32:16.116Z,0.43
2023-01-29T05:34:45.571Z,0.48
2023-01-29T05:37:13.690Z,0.42
2023-01-29T05:39:41.731Z,0.46
2023-01-29T05:42:09.769Z,0.47
2023-01-29T05:44:37.787Z,0.49
2023-01-29T05:47:05.997Z,0.49
2023-01-29T05:49:34.126Z,0.52
2023-01-29T05:52:03.908Z,0.53
2023-01-29T05:54:31.945Z,0.50
2023-01-29T05:57:02.407Z,0.53
2023-01-29T05:59:31.285Z,0.54
2023-01-29T06:01:59.581Z,0.52
2023-01-29T06:04:27.691Z,0.49
2023-01-29T06:06:55.722Z,0.55
2023-01-29T06:09:25.276Z,0.47
2023-01-29T06:11:53.326Z,0.45
2023-01-29T06:14:21.536Z,0.37
2023-01-29T06:16:49.623Z,0.43
2023-01-29T06:19:18.419Z,0.47
2023-01-29T06:21:46.467Z,0.46
2023-01-29T06:24:14.841Z,0.49
2023-01-29T06:26:46.504Z,0.49
2023-01-29T06:29:14.560Z,0.49
2023-01-29T06:31:42.754Z,0.46
2023-01-29T06:34:12.075Z,0.49
2023-01-29T06:36:41.679Z,0.50
2023-01-29T06:39:09.939Z,0.48
2023-01-29T06:41:37.995Z,0.48
2023-01-29T06:44:07.489Z,0.47
2023-01-29T06:46:35.569Z,0.46
2023-01-29T06:49:03.676Z,0.48
2023-01-29T06:51:31.794Z,0.50
2023-01-29T06:53:59.830Z,0.48
2023-01-29T06:56:28.084Z,0.53
2023-01-29T06:58:56.217Z,0.53
2023-01-29T07:01:35.840Z,0.54
2023-01-29T07:04:04.991Z,0.58
2023-01-29T07:06:33.090Z,0.47
2023-01-29T07:09:01.451Z,0.44
2023-01-29T07:11:29.697Z,0.44
2023-01-29T07:13:57.954Z,0.48
2023-01-29T07:16:27.639Z,0.45
2023-01-29T07:18:55.773Z,0.53
2023-01-29T07:21:24.210Z,0.55
2023-01-29T07:23:52.560Z,0.57
2023-01-29T07:26:20.773Z,0.60
2023-01-29T07:28:48.875Z,0.65
2023-01-29T07:31:17.032Z,0.66
2023-01-29T07:33:47.014Z,0.67
2023-01-29T07:36:15.476Z,0.66
2023-01-29T07:38:43.465Z,0.66
2023-01-29T07:41:13.115Z,0.66
2023-01-29T07:43:41.165Z,0.71
2023-01-29T07:46:09.414Z,0.73
2023-01-29T07:48:37.565Z,0.72
2023-01-29T07:51:07.434Z,0.72
2023-01-29T07:53:35.906Z,0.72
2023-01-29T07:56:04.002Z,0.73
2023-01-29T07:58:32.146Z,0.72
2023-01-29T08:01:00.278Z,0.72
2023-01-29T08:03:28.548Z,0.70
2023-01-29T08:05:58.731Z,0.72
2023-01-29T08:08:28.186Z,0.72
2023-01-29T08:10:56.296Z,0.78
2023-01-29T08:13:24.338Z,0.79
2023-01-29T08:15:52.310Z,0.86
2023-01-29T08:18:20.735Z,0.81
2023-01-29T08:20:48.769Z,0.81
2023-01-29T08:23:17.575Z,0.79
2023-01-29T08:25:47.027Z,0.89
2023-01-29T08:28:15.110Z,0.87
2023-01-29T08:30:44.170Z,0.89
2023-01-29T08:33:12.633Z,0.97
2023-01-29T08:35:41.302Z,0.95
2023-01-29T08:38:10.704Z,0.99
2023-01-29T08:40:38.904Z,1.04
2023-01-29T08:43:09.736Z,1.08
2023-01-29T08:45:40.344Z,1.11
2023-01-29T08:48:09.243Z,1.08
2023-01-29T08:50:38.206Z,1.07
2023-01-29T08:53:08.270Z,1.12
2023-01-29T08:55:37.525Z,1.12
2023-01-29T08:58:06.410Z,1.15
2023-01-29T09:00:36.451Z,1.17
2023-01-29T09:03:05.145Z,1.33
2023-01-29T09:05:33.283Z,1.30
2023-01-29T09:08:01.371Z,1.30
2023-01-29T09:10:29.474Z,1.38
2023-01-29T09:12:57.595Z,1.35
2023-01-29T09:15:26.134Z,1.36
2023-01-29T09:17:55.820Z,1.40
2023-01-29T09:20:23.990Z,1.40
2023-01-29T09:22:53.772Z,1.43
2023-01-29T09:25:21.971Z,1.47
2023-01-29T09:27:49.968Z,1.50
2023-01-29T09:30:19.165Z,1.56
2023-01-29T09:32:53.748Z,1.62
2023-01-29T09:35:24.724Z,1.55
2023-01-29T09:37:53.247Z,1.59
2023-01-29T09:40:27.689Z,1.64
2023-01-29T09:43:01.896Z,1.62
2023-01-29T09:45:31.390Z,1.70
2023-01-29T09:48:02.232Z,1.79
2023-01-29T09:50:36.093Z,1.76
2023-01-29T09:53:11.206Z,1.77
2023-01-29T09:55:43.818Z,1.88
2023-01-29T09:58:20.155Z,1.86
2023-01-29T10:00:59.287Z,1.85
2023-01-29T10:03:51.079Z,1.88
2023-01-29T10:06:33.570Z,1.92
2023-01-29T10:09:46.182Z,1.96
2023-01-29T10:12:27.987Z,1.97
2023-01-29T10:15:04.605Z,1.97
2023-01-29T10:17:49.552Z,2.00
2023-01-29T10:20:39.792Z,2.06
2023-01-29T10:23:25.192Z,2.13
2023-01-29T10:25:54.590Z,2.14
2023-01-29T10:28:28.851Z,2.13
2023-01-29T10:31:01.816Z,2.17
2023-01-29T10:33:49.635Z,2.17
2023-01-29T10:36:29.919Z,2.15
2023-01-29T10:38:59.466Z,2.19
2023-01-29T10:41:44.116Z,2.24
2023-01-29T10:44:36.367Z,2.25
2023-01-29T10:47:21.036Z,2.30
2023-01-29T10:50:21.962Z,2.32
2023-01-29T10:53:05.004Z,2.35
2023-01-29T10:55:52.516Z,2.32
2023-01-29T10:58:28.294Z,2.36
2023-01-29T11:00:56.538Z,2.39
2023-01-29T11:03:28.355Z,2.41
2023-01-29T11:06:04.068Z,2.37
2023-01-29T11:08:38.623Z,2.40
2023-01-29T11:11:13.450Z,2.45
2023-01-29T11:13:45.952Z,2.44
2023-01-29T11:16:14.597Z,2.49
2023-01-29T11:18:54.704Z,2.46
2023-01-29T11:21:24.533Z,2.47
2023-01-29T11:24:06.410Z,2.49
2023-01-29T11:26:40.176Z,2.51
2023-01-29T11:29:32.876Z,2.43
2023-01-29T11:32:03.593Z,2.41
2023-01-29T11:34:32.285Z,2.48
2023-01-29T11:37:02.640Z,2.52
2023-01-29T11:39:32.311Z,2.54
2023-01-29T11:42:03.730Z,2.57
2023-01-29T11:44:34.479Z,2.65
2023-01-29T11:47:19.262Z,2.58
2023-01-29T11:49:49.944Z,2.60
2023-01-29T11:52:20.418Z,2.68
2023-01-29T11:54:51.966Z,2.84
2023-01-29T11:57:29.366Z,2.75
2023-01-29T12:00:01.266Z,2.75
2023-01-29T12:02:37.229Z,2.79
2023-01-29T12:05:15.687Z,2.84
2023-01-29T12:07:45.498Z,2.88
2023-01-29T12:10:32.636Z,2.85
2023-01-29T12:13:22.805Z,2.87
2023-01-29T12:15:52.663Z,2.84
2023-01-29T12:18:30.404Z,2.85
2023-01-29T12:21:03.563Z,2.94
2023-01-29T12:23:41.541Z,3.01
2023-01-29T12:26:15.972Z,3.07
2023-01-29T12:28:56.211Z,3.05
2023-01-29T12:31:38.082Z,3.06
2023-01-29T12:34:13.939Z,3.05
2023-01-29T12:36:53.153Z,3.08
2023-01-29T12:39:24.533Z,3.11
2023-01-29T12:41:59.029Z,3.17
2023-01-29T12:44:34.675Z,3.13
2023-01-29T12:47:07.661Z,3.20
2023-01-29T12:49:40.637Z,3.18
2023-01-29T12:52:13.528Z,3.16
2023-01-29T12:54:47.518Z,3.18
2023-01-29T12:57:24.239Z,3.14
2023-01-29T12:59:59.631Z,3.17
2023-01-29T13:02:36.615Z,3.15
2023-01-29T13:05:16.981Z,3.17
2023-01-29T13:07:50.212Z,3.14
2023-01-29T13:10:22.031Z,3.14
2023-01-29T13:12:58.599Z,3.21
2023-01-29T13:15:35.606Z,3.21
2023-01-29T13:18:34.942Z,3.18
2023-01-29T13:21:04.556Z,3.12
2023-01-29T13:23:38.311Z,3.16
2023-01-29T13:26:07.009Z,3.17
2023-01-29T13:28:35.188Z,3.15
2023-01-29T13:31:29.433Z,3.14
2023-01-29T13:34:06.897Z,3.14
2023-01-29T13:36:37.753Z,3.17
2023-01-29T13:39:08.725Z,3.13
2023-01-29T13:41:39.989Z,3.16
2023-01-29T13:44:19.692Z,3.00
2023-01-29T13:46:55.087Z,3.07
2023-01-29T13:49:30.636Z,3.04
2023-01-29T13:51:59.711Z,2.96
2023-01-29T13:54:29.131Z,2.99
2023-01-29T13:57:02.203Z,2.92
2023-01-29T13:59:53.926Z,2.96
2023-01-29T14:02:28.211Z,2.92
2023-01-29T14:05:29.555Z,3.01
2023-01-29T14:07:59.374Z,3.05
2023-01-29T14:10:29.127Z,3.04
2023-01-29T14:13:35.438Z,3.07
2023-01-29T14:16:34.798Z,3.07
2023-01-29T14:19:07.028Z,3.10
2023-01-29T14:21:37.803Z,3.01
2023-01-29T14:24:19.769Z,3.05
2023-01-29T14:26:49.747Z,3.04
2023-01-29T14:29:32.549Z,3.02
2023-01-29T14:32:15.984Z,3.06
2023-01-29T14:34:49.092Z,3.04
2023-01-29T14:37:23.697Z,2.99
2023-01-29T14:39:54.218Z,3.02
2023-01-29T14:42:25.943Z,3.00
2023-01-29T14:45:11.400Z,2.92
2023-01-29T14:48:00.747Z,2.95
2023-01-29T14:50:49.418Z,2.95
2023-01-29T14:53:26.605Z,2.92
2023-01-29T14:56:00.117Z,3.02
2023-01-29T14:58:38.531Z,3.00
2023-01-29T15:01:16.087Z,2.96
2023-01-29T15:03:48.920Z,2.92
2023-01-29T15:06:24.284Z,2.95
2023-01-29T15:08:58.903Z,2.94
2023-01-29T15:11:36.755Z,2.97
2023-01-29T15:14:28.124Z,2.92
2023-01-29T15:17:07.284Z,2.93
2023-01-29T15:19:37.716Z,2.98
2023-01-29T15:22:12.554Z,2.98
2023-01-29T15:24:42.228Z,2.92
2023-01-29T15:27:15.015Z,2.85
2023-01-29T15:29:45.900Z,2.85
2023-01-29T15:32:20.777Z,2.86
2023-01-29T15:34:50.411Z,2.87
2023-01-29T15:37:32.499Z,2.86
2023-01-29T15:40:02.040Z,2.86
2023-01-29T15:42:42.698Z,2.86
2023-01-29T15:45:24.241Z,2.85
2023-01-29T15:47:54.609Z,2.79
2023-01-29T15:50:23.403Z,2.78
2023-01-29T15:52:54.738Z,2.78
2023-01-29T15:55:24.877Z,2.72
2023-01-29T15:57:53.471Z,2.74
2023-01-29T16:00:27.259Z,2.73
2023-01-29T16:02:55.987Z,2.79
2023-01-29T16:05:29.338Z,2.75
2023-01-29T16:07:59.317Z,2.72
2023-01-29T16:10:30.242Z,2.74
2023-01-29T16:12:59.558Z,2.76
2023-01-29T16:15:32.969Z,2.71
2023-01-29T16:18:03.912Z,2.74
2023-01-29T16:20:38.908Z,2.72
2023-01-29T16:23:11.297Z,2.72
2023-01-29T16:25:40.362Z,2.73
2023-01-29T16:28:11.058Z,2.69
2023-01-29T16:30:40.442Z,2.70
2023-01-29T16:33:14.359Z,2.66
2023-01-29T16:35:43.169Z,2.69
2023-01-29T16:38:28.366Z,2.76
2023-01-29T16:41:09.512Z,2.73
2023-01-29T16:43:50.343Z,2.74
2023-01-29T16:46:26.162Z,2.70
2023-01-29T16:48:55.259Z,2.69
2023-01-29T16:51:27.024Z,2.67
2023-01-29T16:54:08.157Z,2.70
2023-01-29T16:56:38.593Z,2.70
2023-01-29T16:59:07.924Z,2.64
2023-01-29T17:01:37.394Z,2.63
2023-01-29T17:04:11.219Z,2.64
2023-01-29T17:06:49.355Z,2.67
2023-01-29T17:09:25.554Z,2.66
2023-01-29T17:11:57.535Z,2.60
2023-01-29T17:14:26.973Z,2.61
2023-01-29T17:16:57.658Z,2.58
2023-01-29T17:19:26.035Z,2.57
2023-01-29T17:21:54.747Z,2.53
2023-01-29T17:24:24.317Z,2.55
2023-01-29T17:26:52.767Z,2.51
2023-01-29T17:29:24.742Z,2.54
2023-01-29T17:31:52.898Z,2.50
2023-01-29T17:34:20.975Z,2.53
2023-01-29T17:36:49.390Z,2.48
2023-01-29T17:39:20.171Z,2.53
2023-01-29T17:41:52.012Z,2.49
2023-01-29T17:44:20.584Z,2.43
2023-01-29T17:46:49.351Z,2.44
2023-01-29T17:49:24.455Z,2.41
2023-01-29T17:51:52.813Z,2.42
2023-01-29T17:54:21.507Z,2.41
2023-01-29T17:56:51.712Z,2.35
2023-01-29T17:59:21.779Z,2.35
2023-01-29T18:01:50.834Z,2.37
2023-01-29T18:04:19.521Z,2.34
2023-01-29T18:06:49.541Z,2.35
2023-01-29T18:09:23.003Z,2.35
2023-01-29T18:11:53.417Z,2.41
2023-01-29T18:14:21.638Z,2.48
2023-01-29T18:16:49.678Z,2.46
2023-01-29T18:19:22.793Z,2.34
2023-01-29T18:21:52.496Z,2.37
2023-01-29T18:24:20.913Z,2.36
2023-01-29T18:26:49.096Z,2.39
2023-01-29T18:29:19.088Z,2.38
2023-01-29T18:31:49.929Z,2.39
2023-01-29T18:34:18.204Z,2.45
2023-01-29T18:36:47.756Z,2.46
2023-01-29T18:39:16.213Z,2.46
2023-01-29T18:41:44.589Z,2.42
2023-01-29T18:44:13.085Z,2.42
2023-01-29T18:46:42.787Z,2.46
2023-01-29T18:49:10.901Z,2.41
2023-01-29T18:51:39.168Z,2.46
2023-01-29T18:54:07.415Z,2.46
2023-01-29T18:56:35.560Z,2.43
2023-01-29T18:59:05.645Z,2.45
2023-01-29T19:01:34.844Z,2.47
2023-01-29T19:04:04.306Z,2.42
2023-01-29T19:06:36.130Z,2.43
2023-01-29T19:09:05.916Z,2.48
2023-01-29T19:11:34.059Z,2.48
2023-01-29T19:14:02.153Z,2.56
2023-01-29T19:16:30.634Z,2.54
2023-01-29T19:19:01.233Z,2.51
2023-01-29T19:21:35.843Z,2.50
2023-01-29T19:24:04.080Z,2.50
2023-01-29T19:26:34.143Z,2.48
2023-01-29T19:29:02.648Z,2.52
2023-01-29T19:31:32.894Z,2.57
2023-01-29T19:34:04.531Z,2.56
2023-01-29T19:36:34.263Z,2.54
2023-01-29T19:39:03.020Z,2.56
2023-01-29T19:41:31.114Z,2.52
2023-01-29T19:44:02.255Z,2.52
2023-01-29T19:46:33.525Z,2.54
2023-01-29T19:49:03.641Z,2.54
2023-01-29T19:51:31.798Z,2.56
2023-01-29T19:54:02.318Z,2.62
2023-01-29T19:56:30.477Z,2.65
2023-01-29T19:58:58.553Z,2.68
2023-01-29T20:01:29.536Z,2.65
2023-01-29T20:03:58.533Z,2.65
2023-01-29T20:06:28.164Z,2.63
2023-01-29T20:08:56.330Z,2.64
2023-01-29T20:11:26.039Z,2.64
2023-01-29T20:13:54.507Z,2.62
2023-01-29T20:16:22.858Z,2.71
2023-01-29T20:18:51.664Z,2.65
2023-01-29T20:21:22.558Z,2.67
2023-01-29T20:23:52.153Z,2.66
2023-01-29T20:26:21.840Z,2.69
2023-01-29T20:28:51.831Z,2.66
2023-01-29T20:31:19.957Z,2.73
2023-01-29T20:33:48.046Z,2.76
2023-01-29T20:36:16.085Z,2.70
2023-01-29T20:38:44.728Z,2.69
2023-01-29T20:41:16.207Z,2.68
2023-01-29T20:43:45.593Z,2.68
2023-01-29T20:46:15.381Z,2.67
2023-01-29T20:48:43.771Z,2.74
2023-01-29T20:51:15.950Z,2.79
2023-01-29T20:53:46.046Z,2.79
2023-01-29T20:56:15.780Z,2.81
2023-01-29T20:58:44.120Z,2.78
2023-01-29T21:01:15.543Z,2.79
2023-01-29T21:03:44.298Z,2.84
2023-01-29T21:06:13.241Z,2.83
2023-01-29T21:08:41.871Z,2.81
2023-01-29T21:11:11.208Z,2.82
2023-01-29T21:13:39.555Z,2.90
2023-01-29T21:16:10.786Z,2.90
2023-01-29T21:18:40.773Z,2.89
2023-01-29T21:21:08.887Z,2.91
2023-01-29T21:23:36.917Z,2.88
2023-01-29T21:26:06.848Z,2.95
2023-01-29T21:28:35.169Z,2.86
2023-01-29T21:31:06.605Z,2.89
2023-01-29T21:33:35.319Z,2.90
2023-01-29T21:36:05.822Z,2.90
2023-01-29T21:38:34.231Z,2.91
2023-01-29T21:41:03.347Z,2.87
2023-01-29T21:43:31.201Z,2.88
2023-01-29T21:46:01.127Z,2.90
2023-01-29T21:48:29.315Z,2.94
2023-01-29T21:50:57.589Z,2.94
2023-01-29T21:53:27.136Z,2.93
2023-01-29T21:56:00.671Z,2.91
2023-01-29T21:58:28.863Z,2.97
2023-01-29T22:00:57.038Z,2.98
2023-01-29T22:03:47.168Z,3.06
2023-01-29T22:06:15.799Z,3.03
2023-01-29T22:08:45.252Z,3.06
2023-01-29T22:11:13.401Z,3.06
2023-01-29T22:13:41.592Z,3.06
2023-01-29T22:16:10.195Z,3.08
2023-01-29T22:18:38.241Z,3.12
2023-01-29T22:21:06.812Z,3.09
2023-01-29T22:23:34.909Z,3.10
2023-01-29T22:26:09.057Z,3.13
2023-01-29T22:28:37.300Z,3.11
2023-01-29T22:31:06.747Z,3.12
2023-01-29T22:33:35.221Z,3.20
2023-01-29T22:36:03.810Z,3.18
2023-01-29T22:38:32.275Z,3.27
2023-01-29T22:41:01.487Z,3.26
2023-01-29T22:43:30.989Z,3.25
2023-01-29T22:45:59.223Z,3.24
2023-01-29T22:48:28.591Z,3.25
2023-01-29T22:51:10.106Z,3.29
2023-01-29T22:53:38.941Z,3.28
2023-01-29T22:56:10.098Z,3.30
2023-01-29T22:58:41.139Z,3.37
2023-01-29T23:01:09.829Z,3.39
2023-01-29T23:03:38.237Z,3.40
2023-01-29T23:06:06.493Z,3.42
2023-01-29T23:08:34.868Z,3.43
2023-01-29T23:11:14.304Z,3.45
2023-01-29T23:13:46.655Z,3.50
2023-01-29T23:16:16.332Z,3.52
2023-01-29T23:18:45.808Z,3.55
2023-01-29T23:21:14.025Z,3.62
2023-01-29T23:23:44.705Z,3.58
2023-01-29T23:26:31.826Z,3.63
2023-01-29T23:29:01.617Z,3.63
2023-01-29T23:31:29.884Z,3.65
2023-01-29T23:34:00.321Z,3.69
2023-01-29T23:36:30.601Z,3.73
2023-01-29T23:38:58.682Z,3.75
2023-01-29T23:41:26.770Z,3.77
2023-01-29T23:43:54.925Z,3.78
2023-01-29T23:46:24.699Z,3.79
2023-01-29T23:48:52.841Z,3.79
2023-01-29T23:51:20.967Z,3.81
2023-01-29T23:53:49.113Z,3.85
2023-01-29T23:56:17.143Z,3.94
2023-01-29T23:58:45.227Z,3.92
